sensor_id;sensor_type;location;lat;lon;timestamp;P1;durP1;ratioP1;P2;durP2;ratioP2
21943;SDS011;11136;48.778;9.126;2023-04-30T00:01:48;6.03;;;4.03;;
21943;SDS011;11136;48.778;9.126;2023-04-30T00:04:14;3.88;;;3.25;;
21943;SDS011;11136;48.778;9.126;2023-04-30T00:06:39;5.53;;;3.92;;
21943;SDS011;11136;48.778;9.126;2023-04-30T00:09:05;5.20;;;3.15;;
21943;SDS011;11136;48.778;9.126;2023-04-30T00:11:31;4.40;;;3.22;;
21943;SDS011;11136;48.778;9.126;2023-04-30T00:13:56;6.32;;;3.22;;
21943;SDS011;11136;48.778;9.126;2023-04-30T00:16:22;6.30;;;4.03;;
21943;SDS011;11136;48.778;9.126;2023-04-30T00:18:47;5.70;;;3.40;;
21943;SDS011;11136;48.778;9.126;2023-04-30T00:21:13;6.30;;;3.55;;
21943;SDS011;11136;48.778;9.126;2023-04-30T00:23:39;5.40;;;4.05;;
21943;SDS011;11136;48.778;9.126;2023-04-30T00:26:05;6.10;;;3.90;;
21943;SDS011;11136;48.778;9.126;2023-04-30T00:28:30;4.53;;;3.65;;
21943;SDS011;11136;48.778;9.126;2023-04-30T00:30:56;5.60;;;3.95;;
21943;SDS011;11136;48.778;9.126;2023-04-30T00:33:21;7.38;;;4.25;;
21943;SDS011;11136;48.778;9.126;2023-04-30T00:35:47;5.63;;;4.35;;
21943;SDS011;11136;48.778;9.126;2023-04-30T00:38:12;7.60;;;3.85;;
21943;SDS011;11136;48.778;9.126;2023-04-30T00:40:39;4.75;;;3.90;;
21943;SDS011;11136;48.778;9.126;2023-04-30T00:43:06;5.10;;;3.65;;
21943;SDS011;11136;48.778;9.126;2023-04-30T00:45:31;6.88;;;4.20;;
21943;SDS011;11136;48.778;9.126;2023-04-30T00:47:57;8.07;;;4.55;;
21943;SDS011;11136;48.778;9.126;2023-04-30T00:50:23;5.30;;;3.50;;
21943;SDS011;11136;48.778;9.126;2023-04-30T00:52:49;5.00;;;3.67;;
21943;SDS011;11136;48.778;9.126;2023-04-30T00:55:15;4.57;;;3.80;;
21943;SDS011;11136;48.778;9.126;2023-04-30T00:57:42;6.43;;;4.28;;
21943;SDS011;11136;48.778;9.126;2023-04-30T01:00:07;6.32;;;4.00;;
21943;SDS011;11136;48.778;9.126;2023-04-30T01:02:38;6.10;;;3.70;;
21943;SDS011;11136;48.778;9.126;2023-04-30T01:05:05;6.05;;;4.13;;
21943;SDS011;11136;48.778;9.126;2023-04-30T01:07:32;6.30;;;4.53;;
21943;SDS011;11136;48.778;9.126;2023-04-30T01:09:59;5.82;;;4.20;;
21943;SDS011;11136;48.778;9.126;2023-04-30T01:12:25;6.57;;;4.13;;
21943;SDS011;11136;48.778;9.126;2023-04-30T01:15:08;7.22;;;4.10;;
21943;SDS011;11136;48.778;9.126;2023-04-30T01:21:05;6.97;;;3.63;;
21943;SDS011;11136;48.778;9.126;2023-04-30T01:26:13;7.68;;;4.28;;
21943;SDS011;11136;48.778;9.126;2023-04-30T01:28:46;10.52;;;4.60;;
21943;SDS011;11136;48.778;9.126;2023-04-30T01:31:17;6.30;;;4.32;;
21943;SDS011;11136;48.778;9.126;2023-04-30T01:33:43;6.68;;;4.63;;
21943;SDS011;11136;48.778;9.126;2023-04-30T01:36:26;4.50;;;3.63;;
21943;SDS011;11136;48.778;9.126;2023-04-30T01:39:27;7.78;;;4.55;;
21943;SDS011;11136;48.778;9.126;2023-04-30T01:45:21;6.95;;;4.13;;
21943;SDS011;11136;48.778;9.126;2023-04-30T01:50:48;4.85;;;4.15;;
21943;SDS011;11136;48.778;9.126;2023-04-30T01:53:20;7.63;;;5.25;;
21943;SDS011;11136;48.778;9.126;2023-04-30T01:58:16;6.47;;;4.47;;
21943;SDS011;11136;48.778;9.126;2023-04-30T02:00:44;7.28;;;4.80;;
21943;SDS011;11136;48.778;9.126;2023-04-30T02:03:10;8.55;;;6.13;;
21943;SDS011;11136;48.778;9.126;2023-04-30T02:05:35;9.77;;;6.15;;
21943;SDS011;11136;48.778;9.126;2023-04-30T02:08:01;7.20;;;5.53;;
21943;SDS011;11136;48.778;9.126;2023-04-30T02:10:27;6.53;;;5.30;;
21943;SDS011;11136;48.778;9.126;2023-04-30T02:12:54;9.68;;;6.43;;
21943;SDS011;11136;48.778;9.126;2023-04-30T02:15:20;10.05;;;6.70;;
21943;SDS011;11136;48.778;9.126;2023-04-30T02:17:45;8.07;;;6.22;;
21943;SDS011;11136;48.778;9.126;2023-04-30T02:20:11;9.30;;;5.97;;
21943;SDS011;11136;48.778;9.126;2023-04-30T02:22:37;7.50;;;5.80;;
21943;SDS011;11136;48.778;9.126;2023-04-30T02:25:03;8.45;;;6.28;;
21943;SDS011;11136;48.778;9.126;2023-04-30T02:27:30;8.65;;;5.97;;
21943;SDS011;11136;48.778;9.126;2023-04-30T02:29:56;8.98;;;6.60;;
21943;SDS011;11136;48.778;9.126;2023-04-30T02:32:22;10.18;;;6.88;;
21943;SDS011;11136;48.778;9.126;2023-04-30T02:34:48;13.82;;;6.35;;
21943;SDS011;11136;48.778;9.126;2023-04-30T02:37:13;9.60;;;6.90;;
21943;SDS011;11136;48.778;9.126;2023-04-30T02:39:39;9.43;;;6.65;;
21943;SDS011;11136;48.778;9.126;2023-04-30T02:42:05;9.55;;;6.80;;
21943;SDS011;11136;48.778;9.126;2023-04-30T02:44:31;9.82;;;7.07;;
21943;SDS011;11136;48.778;9.126;2023-04-30T02:46:58;10.38;;;7.03;;
21943;SDS011;11136;48.778;9.126;2023-04-30T02:49:24;8.68;;;6.85;;
21943;SDS011;11136;48.778;9.126;2023-04-30T02:51:50;9.38;;;6.95;;
21943;SDS011;11136;48.778;9.126;2023-04-30T02:54:16;9.02;;;6.60;;
21943;SDS011;11136;48.778;9.126;2023-04-30T02:56:42;9.30;;;6.75;;
21943;SDS011;11136;48.778;9.126;2023-04-30T02:59:08;12.50;;;7.57;;
21943;SDS011;11136;48.778;9.126;2023-04-30T03:01:34;11.50;;;6.22;;
21943;SDS011;11136;48.778;9.126;2023-04-30T03:04:00;10.70;;;6.50;;
21943;SDS011;11136;48.778;9.126;2023-04-30T03:06:28;9.70;;;7.30;;
21943;SDS011;11136;48.778;9.126;2023-04-30T03:08:53;8.85;;;7.30;;
21943;SDS011;11136;48.778;9.126;2023-04-30T03:11:19;10.77;;;7.88;;
21943;SDS011;11136;48.778;9.126;2023-04-30T03:13:45;10.45;;;8.00;;
21943;SDS011;11136;48.778;9.126;2023-04-30T03:16:13;9.90;;;7.50;;
21943;SDS011;11136;48.778;9.126;2023-04-30T03:18:39;11.13;;;7.78;;
21943;SDS011;11136;48.778;9.126;2023-04-30T03:21:04;9.93;;;7.47;;
21943;SDS011;11136;48.778;9.126;2023-04-30T03:23:30;10.68;;;7.00;;
21943;SDS011;11136;48.778;9.126;2023-04-30T03:25:56;10.65;;;7.78;;
21943;SDS011;11136;48.778;9.126;2023-04-30T03:28:21;13.90;;;7.53;;
21943;SDS011;11136;48.778;9.126;2023-04-30T03:30:47;10.13;;;7.43;;
21943;SDS011;11136;48.778;9.126;2023-04-30T03:33:12;9.50;;;6.78;;
21943;SDS011;11136;48.778;9.126;2023-04-30T03:35:38;13.07;;;8.65;;
21943;SDS011;11136;48.778;9.126;2023-04-30T03:38:03;13.45;;;8.23;;
21943;SDS011;11136;48.778;9.126;2023-04-30T03:40:29;9.80;;;7.45;;
21943;SDS011;11136;48.778;9.126;2023-04-30T03:42:55;11.10;;;7.53;;
21943;SDS011;11136;48.778;9.126;2023-04-30T03:45:20;10.10;;;7.35;;
21943;SDS011;11136;48.778;9.126;2023-04-30T03:47:46;11.77;;;7.80;;
21943;SDS011;11136;48.778;9.126;2023-04-30T03:50:12;9.23;;;7.10;;
21943;SDS011;11136;48.778;9.126;2023-04-30T03:52:38;10.15;;;7.40;;
21943;SDS011;11136;48.778;9.126;2023-04-30T03:55:04;9.57;;;7.18;;
21943;SDS011;11136;48.778;9.126;2023-04-30T03:57:31;11.25;;;7.63;;
21943;SDS011;11136;48.778;9.126;2023-04-30T03:59:57;11.95;;;7.50;;
21943;SDS011;11136;48.778;9.126;2023-04-30T04:02:22;12.98;;;8.00;;
21943;SDS011;11136;48.778;9.126;2023-04-30T04:04:49;9.98;;;7.28;;
21943;SDS011;11136;48.778;9.126;2023-04-30T04:07:15;11.52;;;8.15;;
21943;SDS011;11136;48.778;9.126;2023-04-30T04:09:41;10.57;;;7.30;;
21943;SDS011;11136;48.778;9.126;2023-04-30T04:12:07;13.45;;;7.57;;
21943;SDS011;11136;48.778;9.126;2023-04-30T04:14:33;9.98;;;7.07;;
21943;SDS011;11136;48.778;9.126;2023-04-30T04:16:59;11.73;;;7.80;;
21943;SDS011;11136;48.778;9.126;2023-04-30T04:19:25;12.13;;;7.78;;
21943;SDS011;11136;48.778;9.126;2023-04-30T04:21:52;10.95;;;7.55;;
21943;SDS011;11136;48.778;9.126;2023-04-30T04:24:17;9.65;;;7.25;;
21943;SDS011;11136;48.778;9.126;2023-04-30T04:26:43;12.95;;;6.93;;
21943;SDS011;11136;48.778;9.126;2023-04-30T04:29:09;10.35;;;7.47;;
21943;SDS011;11136;48.778;9.126;2023-04-30T04:31:35;10.30;;;7.70;;
21943;SDS011;11136;48.778;9.126;2023-04-30T04:34:01;10.95;;;7.93;;
21943;SDS011;11136;48.778;9.126;2023-04-30T04:36:28;11.73;;;7.57;;
21943;SDS011;11136;48.778;9.126;2023-04-30T04:38:55;10.05;;;6.53;;
21943;SDS011;11136;48.778;9.126;2023-04-30T04:41:28;10.18;;;6.82;;
21943;SDS011;11136;48.778;9.126;2023-04-30T04:43:55;8.55;;;5.75;;
21943;SDS011;11136;48.778;9.126;2023-04-30T04:46:24;9.40;;;6.85;;
21943;SDS011;11136;48.778;9.126;2023-04-30T04:48:50;9.55;;;6.47;;
21943;SDS011;11136;48.778;9.126;2023-04-30T04:51:17;9.70;;;6.45;;
21943;SDS011;11136;48.778;9.126;2023-04-30T04:53:42;9.02;;;6.55;;
21943;SDS011;11136;48.778;9.126;2023-04-30T04:56:08;9.00;;;6.50;;
21943;SDS011;11136;48.778;9.126;2023-04-30T04:58:34;8.70;;;6.10;;
21943;SDS011;11136;48.778;9.126;2023-04-30T05:01:00;11.73;;;7.32;;
21943;SDS011;11136;48.778;9.126;2023-04-30T05:03:27;8.38;;;6.32;;
21943;SDS011;11136;48.778;9.126;2023-04-30T05:05:53;9.60;;;7.10;;
21943;SDS011;11136;48.778;9.126;2023-04-30T05:08:18;10.20;;;7.10;;
21943;SDS011;11136;48.778;9.126;2023-04-30T05:10:44;10.48;;;6.72;;
21943;SDS011;11136;48.778;9.126;2023-04-30T05:13:10;9.23;;;6.50;;
21943;SDS011;11136;48.778;9.126;2023-04-30T05:15:36;9.98;;;6.97;;
21943;SDS011;11136;48.778;9.126;2023-04-30T05:18:01;9.00;;;6.85;;
21943;SDS011;11136;48.778;9.126;2023-04-30T05:20:27;7.80;;;6.55;;
21943;SDS011;11136;48.778;9.126;2023-04-30T05:22:53;7.80;;;6.55;;
21943;SDS011;11136;48.778;9.126;2023-04-30T05:25:19;9.90;;;6.68;;
21943;SDS011;11136;48.778;9.126;2023-04-30T05:27:44;10.20;;;6.60;;
21943;SDS011;11136;48.778;9.126;2023-04-30T05:30:10;9.23;;;7.05;;
21943;SDS011;11136;48.778;9.126;2023-04-30T05:32:36;11.55;;;7.13;;
21943;SDS011;11136;48.778;9.126;2023-04-30T05:35:01;11.32;;;7.82;;
21943;SDS011;11136;48.778;9.126;2023-04-30T05:37:27;10.05;;;7.55;;
21943;SDS011;11136;48.778;9.126;2023-04-30T05:39:53;10.75;;;7.55;;
21943;SDS011;11136;48.778;9.126;2023-04-30T05:42:19;10.15;;;7.15;;
21943;SDS011;11136;48.778;9.126;2023-04-30T05:44:45;12.02;;;7.45;;
21943;SDS011;11136;48.778;9.126;2023-04-30T05:47:11;11.55;;;7.25;;
21943;SDS011;11136;48.778;9.126;2023-04-30T05:49:36;10.35;;;7.45;;
21943;SDS011;11136;48.778;9.126;2023-04-30T05:52:02;12.93;;;7.85;;
21943;SDS011;11136;48.778;9.126;2023-04-30T05:54:28;10.82;;;7.50;;
21943;SDS011;11136;48.778;9.126;2023-04-30T05:56:54;10.98;;;7.88;;
21943;SDS011;11136;48.778;9.126;2023-04-30T05:59:20;12.10;;;7.97;;
21943;SDS011;11136;48.778;9.126;2023-04-30T06:01:45;11.52;;;7.68;;
21943;SDS011;11136;48.778;9.126;2023-04-30T06:04:11;9.38;;;7.53;;
21943;SDS011;11136;48.778;9.126;2023-04-30T06:06:37;14.77;;;7.53;;
21943;SDS011;11136;48.778;9.126;2023-04-30T06:09:02;11.23;;;7.25;;
21943;SDS011;11136;48.778;9.126;2023-04-30T06:11:28;9.60;;;6.65;;
21943;SDS011;11136;48.778;9.126;2023-04-30T06:13:54;9.32;;;6.78;;
21943;SDS011;11136;48.778;9.126;2023-04-30T06:16:20;10.52;;;7.22;;
21943;SDS011;11136;48.778;9.126;2023-04-30T06:18:47;9.18;;;7.03;;
21943;SDS011;11136;48.778;9.126;2023-04-30T06:21:13;13.18;;;7.53;;
21943;SDS011;11136;48.778;9.126;2023-04-30T06:23:38;12.50;;;7.60;;
21943;SDS011;11136;48.778;9.126;2023-04-30T06:26:04;9.27;;;6.57;;
21943;SDS011;11136;48.778;9.126;2023-04-30T06:28:29;12.55;;;7.82;;
21943;SDS011;11136;48.778;9.126;2023-04-30T06:30:55;8.95;;;6.95;;
21943;SDS011;11136;48.778;9.126;2023-04-30T06:33:21;11.10;;;7.50;;
21943;SDS011;11136;48.778;9.126;2023-04-30T06:35:47;9.40;;;6.85;;
21943;SDS011;11136;48.778;9.126;2023-04-30T06:38:14;11.63;;;8.02;;
21943;SDS011;11136;48.778;9.126;2023-04-30T06:40:42;9.07;;;6.72;;
21943;SDS011;11136;48.778;9.126;2023-04-30T06:43:08;9.18;;;7.05;;
21943;SDS011;11136;48.778;9.126;2023-04-30T06:45:33;10.02;;;6.80;;
21943;SDS011;11136;48.778;9.126;2023-04-30T06:47:59;8.57;;;6.72;;
21943;SDS011;11136;48.778;9.126;2023-04-30T06:50:25;15.68;;;7.97;;
21943;SDS011;11136;48.778;9.126;2023-04-30T06:52:51;10.80;;;7.25;;
21943;SDS011;11136;48.778;9.126;2023-04-30T06:55:16;9.88;;;7.28;;
21943;SDS011;11136;48.778;9.126;2023-04-30T06:57:42;8.40;;;6.63;;
21943;SDS011;11136;48.778;9.126;2023-04-30T07:00:08;9.90;;;7.07;;
21943;SDS011;11136;48.778;9.126;2023-04-30T07:02:34;11.82;;;7.53;;
21943;SDS011;11136;48.778;9.126;2023-04-30T07:05:00;10.85;;;6.50;;
21943;SDS011;11136;48.778;9.126;2023-04-30T07:07:25;8.43;;;6.65;;
21943;SDS011;11136;48.778;9.126;2023-04-30T07:09:51;7.75;;;6.50;;
21943;SDS011;11136;48.778;9.126;2023-04-30T07:12:17;13.18;;;7.80;;
21943;SDS011;11136;48.778;9.126;2023-04-30T07:14:43;9.57;;;7.07;;
21943;SDS011;11136;48.778;9.126;2023-04-30T07:17:09;8.32;;;6.15;;
21943;SDS011;11136;48.778;9.126;2023-04-30T07:19:35;9.63;;;7.05;;
21943;SDS011;11136;48.778;9.126;2023-04-30T07:22:01;8.43;;;7.03;;
21943;SDS011;11136;48.778;9.126;2023-04-30T07:24:26;9.23;;;6.22;;
21943;SDS011;11136;48.778;9.126;2023-04-30T07:26:52;8.70;;;6.65;;
21943;SDS011;11136;48.778;9.126;2023-04-30T07:29:18;7.60;;;6.35;;
21943;SDS011;11136;48.778;9.126;2023-04-30T07:31:44;8.57;;;6.72;;
21943;SDS011;11136;48.778;9.126;2023-04-30T07:34:09;9.50;;;7.18;;
21943;SDS011;11136;48.778;9.126;2023-04-30T07:36:35;8.00;;;6.03;;
21943;SDS011;11136;48.778;9.126;2023-04-30T07:39:02;7.50;;;5.93;;
21943;SDS011;11136;48.778;9.126;2023-04-30T07:41:29;9.13;;;6.03;;
21943;SDS011;11136;48.778;9.126;2023-04-30T07:43:55;7.70;;;6.20;;
21943;SDS011;11136;48.778;9.126;2023-04-30T07:46:21;8.77;;;6.20;;
21943;SDS011;11136;48.778;9.126;2023-04-30T07:48:49;8.30;;;6.15;;
21943;SDS011;11136;48.778;9.126;2023-04-30T07:51:14;8.80;;;5.60;;
21943;SDS011;11136;48.778;9.126;2023-04-30T07:53:40;6.95;;;6.25;;
21943;SDS011;11136;48.778;9.126;2023-04-30T07:56:06;7.35;;;5.78;;
21943;SDS011;11136;48.778;9.126;2023-04-30T07:58:32;8.88;;;5.97;;
21943;SDS011;11136;48.778;9.126;2023-04-30T08:00:57;6.43;;;5.22;;
21943;SDS011;11136;48.778;9.126;2023-04-30T08:03:23;6.88;;;5.60;;
21943;SDS011;11136;48.778;9.126;2023-04-30T08:05:49;8.15;;;5.32;;
21943;SDS011;11136;48.778;9.126;2023-04-30T08:08:16;8.70;;;6.20;;
21943;SDS011;11136;48.778;9.126;2023-04-30T08:10:41;7.35;;;4.85;;
21943;SDS011;11136;48.778;9.126;2023-04-30T08:13:07;5.85;;;4.43;;
21943;SDS011;11136;48.778;9.126;2023-04-30T08:15:32;5.28;;;4.50;;
21943;SDS011;11136;48.778;9.126;2023-04-30T08:17:58;7.45;;;4.97;;
21943;SDS011;11136;48.778;9.126;2023-04-30T08:20:24;7.53;;;4.55;;
21943;SDS011;11136;48.778;9.126;2023-04-30T08:22:50;7.82;;;4.95;;
21943;SDS011;11136;48.778;9.126;2023-04-30T08:25:15;7.45;;;5.05;;
21943;SDS011;11136;48.778;9.126;2023-04-30T08:27:41;6.75;;;4.85;;
21943;SDS011;11136;48.778;9.126;2023-04-30T08:30:07;4.68;;;4.13;;
21943;SDS011;11136;48.778;9.126;2023-04-30T08:32:33;5.38;;;4.50;;
21943;SDS011;11136;48.778;9.126;2023-04-30T08:35:00;4.82;;;4.32;;
21943;SDS011;11136;48.778;9.126;2023-04-30T08:37:26;5.00;;;4.50;;
21943;SDS011;11136;48.778;9.126;2023-04-30T08:39:52;4.53;;;3.97;;
21943;SDS011;11136;48.778;9.126;2023-04-30T08:42:18;7.43;;;4.30;;
21943;SDS011;11136;48.778;9.126;2023-04-30T08:44:48;5.90;;;4.32;;
21943;SDS011;11136;48.778;9.126;2023-04-30T08:47:13;4.55;;;3.85;;
21943;SDS011;11136;48.778;9.126;2023-04-30T08:49:42;6.18;;;3.70;;
21943;SDS011;11136;48.778;9.126;2023-04-30T08:52:10;4.38;;;3.97;;
21943;SDS011;11136;48.778;9.126;2023-04-30T08:54:35;4.00;;;3.65;;
21943;SDS011;11136;48.778;9.126;2023-04-30T08:57:01;3.58;;;3.22;;
21943;SDS011;11136;48.778;9.126;2023-04-30T08:59:28;3.55;;;2.95;;
21943;SDS011;11136;48.778;9.126;2023-04-30T09:01:54;4.20;;;2.92;;
21943;SDS011;11136;48.778;9.126;2023-04-30T09:04:20;5.05;;;2.90;;
21943;SDS011;11136;48.778;9.126;2023-04-30T09:06:46;3.95;;;2.90;;
21943;SDS011;11136;48.778;9.126;2023-04-30T09:09:13;2.63;;;2.42;;
21943;SDS011;11136;48.778;9.126;2023-04-30T09:11:40;4.30;;;2.50;;
21943;SDS011;11136;48.778;9.126;2023-04-30T09:14:06;2.60;;;2.35;;
21943;SDS011;11136;48.778;9.126;2023-04-30T09:21:50;4.13;;;2.50;;
21943;SDS011;11136;48.778;9.126;2023-04-30T09:24:15;4.93;;;2.53;;
21943;SDS011;11136;48.778;9.126;2023-04-30T09:26:42;3.40;;;2.40;;
21943;SDS011;11136;48.778;9.126;2023-04-30T09:29:08;3.28;;;2.65;;
21943;SDS011;11136;48.778;9.126;2023-04-30T09:31:35;4.13;;;2.92;;
21943;SDS011;11136;48.778;9.126;2023-04-30T09:34:02;4.20;;;3.08;;
21943;SDS011;11136;48.778;9.126;2023-04-30T09:36:28;3.80;;;2.60;;
21943;SDS011;11136;48.778;9.126;2023-04-30T09:38:55;3.05;;;2.30;;
21943;SDS011;11136;48.778;9.126;2023-04-30T09:41:31;2.20;;;1.90;;
21943;SDS011;11136;48.778;9.126;2023-04-30T09:43:56;3.17;;;2.22;;
21943;SDS011;11136;48.778;9.126;2023-04-30T09:46:29;2.72;;;2.38;;
21943;SDS011;11136;48.778;9.126;2023-04-30T09:48:57;3.05;;;2.42;;
21943;SDS011;11136;48.778;9.126;2023-04-30T09:51:24;2.78;;;2.42;;
21943;SDS011;11136;48.778;9.126;2023-04-30T09:53:51;2.55;;;2.35;;
21943;SDS011;11136;48.778;9.126;2023-04-30T09:56:19;2.63;;;2.25;;
21943;SDS011;11136;48.778;9.126;2023-04-30T09:58:47;3.17;;;2.42;;
21943;SDS011;11136;48.778;9.126;2023-04-30T10:01:18;5.05;;;2.22;;
21943;SDS011;11136;48.778;9.126;2023-04-30T10:03:45;2.05;;;1.88;;
21943;SDS011;11136;48.778;9.126;2023-04-30T10:06:12;3.03;;;2.17;;
21943;SDS011;11136;48.778;9.126;2023-04-30T10:08:40;3.63;;;2.35;;
21943;SDS011;11136;48.778;9.126;2023-04-30T10:11:19;2.75;;;2.00;;
21943;SDS011;11136;48.778;9.126;2023-04-30T10:19:29;3.30;;;1.92;;
21943;SDS011;11136;48.778;9.126;2023-04-30T10:21:57;2.13;;;1.92;;
21943;SDS011;11136;48.778;9.126;2023-04-30T10:24:23;2.20;;;1.85;;
21943;SDS011;11136;48.778;9.126;2023-04-30T10:26:49;2.47;;;2.03;;
21943;SDS011;11136;48.778;9.126;2023-04-30T10:29:15;2.95;;;2.33;;
21943;SDS011;11136;48.778;9.126;2023-04-30T10:31:42;3.03;;;1.88;;
21943;SDS011;11136;48.778;9.126;2023-04-30T10:34:16;3.00;;;1.85;;
21943;SDS011;11136;48.778;9.126;2023-04-30T10:36:59;2.45;;;1.95;;
21943;SDS011;11136;48.778;9.126;2023-04-30T10:39:46;2.30;;;2.10;;
21943;SDS011;11136;48.778;9.126;2023-04-30T10:42:13;5.00;;;2.33;;
21943;SDS011;11136;48.778;9.126;2023-04-30T10:44:39;3.38;;;1.73;;
21943;SDS011;11136;48.778;9.126;2023-04-30T10:47:05;2.25;;;1.75;;
21943;SDS011;11136;48.778;9.126;2023-04-30T10:49:31;2.38;;;2.00;;
21943;SDS011;11136;48.778;9.126;2023-04-30T10:51:58;3.47;;;2.90;;
21943;SDS011;11136;48.778;9.126;2023-04-30T10:54:34;11.18;;;5.40;;
21943;SDS011;11136;48.778;9.126;2023-04-30T10:57:08;5.38;;;3.95;;
21943;SDS011;11136;48.778;9.126;2023-04-30T10:59:35;7.15;;;3.47;;
21943;SDS011;11136;48.778;9.126;2023-04-30T11:02:01;5.85;;;3.13;;
21943;SDS011;11136;48.778;9.126;2023-04-30T11:04:27;4.28;;;3.22;;
21943;SDS011;11136;48.778;9.126;2023-04-30T11:06:54;4.55;;;3.10;;
21943;SDS011;11136;48.778;9.126;2023-04-30T11:12:19;4.43;;;3.20;;
21943;SDS011;11136;48.778;9.126;2023-04-30T11:14:53;5.63;;;3.53;;
21943;SDS011;11136;48.778;9.126;2023-04-30T11:17:29;4.88;;;3.78;;
21943;SDS011;11136;48.778;9.126;2023-04-30T11:19:58;5.60;;;3.10;;
21943;SDS011;11136;48.778;9.126;2023-04-30T11:22:27;4.45;;;3.25;;
21943;SDS011;11136;48.778;9.126;2023-04-30T11:25:03;4.72;;;3.28;;
21943;SDS011;11136;48.778;9.126;2023-04-30T11:27:31;7.97;;;4.30;;
21943;SDS011;11136;48.778;9.126;2023-04-30T11:29:58;3.17;;;2.85;;
21943;SDS011;11136;48.778;9.126;2023-04-30T11:32:25;4.38;;;3.35;;
21943;SDS011;11136;48.778;9.126;2023-04-30T11:34:56;66.88;;;33.08;;
21943;SDS011;11136;48.778;9.126;2023-04-30T11:37:43;23.70;;;13.30;;
21943;SDS011;11136;48.778;9.126;2023-04-30T11:40:09;15.35;;;9.10;;
21943;SDS011;11136;48.778;9.126;2023-04-30T11:42:36;21.42;;;10.30;;
21943;SDS011;11136;48.778;9.126;2023-04-30T11:50:12;8.45;;;4.18;;
21943;SDS011;11136;48.778;9.126;2023-04-30T11:52:39;6.88;;;4.18;;
21943;SDS011;11136;48.778;9.126;2023-04-30T11:55:26;10.55;;;3.80;;
21943;SDS011;11136;48.778;9.126;2023-04-30T11:57:52;4.47;;;3.38;;
21943;SDS011;11136;48.778;9.126;2023-04-30T12:00:27;5.93;;;3.60;;
21943;SDS011;11136;48.778;9.126;2023-04-30T12:02:54;5.63;;;3.03;;
21943;SDS011;11136;48.778;9.126;2023-04-30T12:05:21;4.07;;;3.10;;
21943;SDS011;11136;48.778;9.126;2023-04-30T12:07:49;4.68;;;3.08;;
21943;SDS011;11136;48.778;9.126;2023-04-30T12:10:19;7.38;;;3.45;;
21943;SDS011;11136;48.778;9.126;2023-04-30T12:12:45;4.05;;;2.83;;
21943;SDS011;11136;48.778;9.126;2023-04-30T12:15:18;4.35;;;2.88;;
21943;SDS011;11136;48.778;9.126;2023-04-30T12:17:47;3.97;;;3.05;;
21943;SDS011;11136;48.778;9.126;2023-04-30T12:20:13;11.77;;;3.13;;
21943;SDS011;11136;48.778;9.126;2023-04-30T12:22:39;4.45;;;2.60;;
21943;SDS011;11136;48.778;9.126;2023-04-30T12:25:06;4.97;;;2.50;;
21943;SDS011;11136;48.778;9.126;2023-04-30T12:27:37;6.05;;;2.75;;
21943;SDS011;11136;48.778;9.126;2023-04-30T12:30:04;5.32;;;2.80;;
21943;SDS011;11136;48.778;9.126;2023-04-30T12:32:40;2.70;;;2.30;;
21943;SDS011;11136;48.778;9.126;2023-04-30T12:35:07;2.75;;;2.30;;
21943;SDS011;11136;48.778;9.126;2023-04-30T12:37:44;3.08;;;2.20;;
21943;SDS011;11136;48.778;9.126;2023-04-30T12:40:12;2.75;;;2.45;;
21943;SDS011;11136;48.778;9.126;2023-04-30T12:42:40;5.25;;;2.70;;
21943;SDS011;11136;48.778;9.126;2023-04-30T12:45:07;2.35;;;2.05;;
21943;SDS011;11136;48.778;9.126;2023-04-30T12:47:40;3.08;;;2.47;;
21943;SDS011;11136;48.778;9.126;2023-04-30T12:50:09;2.50;;;2.30;;
21943;SDS011;11136;48.778;9.126;2023-04-30T12:52:36;3.65;;;2.70;;
21943;SDS011;11136;48.778;9.126;2023-04-30T12:55:13;2.55;;;2.30;;
21943;SDS011;11136;48.778;9.126;2023-04-30T12:58:29;3.53;;;2.50;;
21943;SDS011;11136;48.778;9.126;2023-04-30T13:00:42;2.47;;;2.28;;
21943;SDS011;11136;48.778;9.126;2023-04-30T13:03:08;3.83;;;2.10;;
21943;SDS011;11136;48.778;9.126;2023-04-30T13:05:34;3.50;;;2.58;;
21943;SDS011;11136;48.778;9.126;2023-04-30T13:08:02;4.22;;;2.47;;
21943;SDS011;11136;48.778;9.126;2023-04-30T13:10:30;5.00;;;2.80;;
21943;SDS011;11136;48.778;9.126;2023-04-30T13:12:56;3.42;;;2.72;;
21943;SDS011;11136;48.778;9.126;2023-04-30T13:15:22;2.70;;;2.40;;
21943;SDS011;11136;48.778;9.126;2023-04-30T13:17:48;3.65;;;2.92;;
21943;SDS011;11136;48.778;9.126;2023-04-30T13:20:17;3.03;;;2.40;;
21943;SDS011;11136;48.778;9.126;2023-04-30T13:22:43;3.92;;;3.20;;
21943;SDS011;11136;48.778;9.126;2023-04-30T13:25:08;5.45;;;2.75;;
21943;SDS011;11136;48.778;9.126;2023-04-30T13:27:34;2.50;;;2.30;;
21943;SDS011;11136;48.778;9.126;2023-04-30T13:30:00;3.08;;;2.40;;
21943;SDS011;11136;48.778;9.126;2023-04-30T13:32:27;4.80;;;2.58;;
21943;SDS011;11136;48.778;9.126;2023-04-30T13:34:53;2.45;;;2.25;;
21943;SDS011;11136;48.778;9.126;2023-04-30T13:37:20;2.45;;;2.15;;
21943;SDS011;11136;48.778;9.126;2023-04-30T13:39:46;7.07;;;2.42;;
21943;SDS011;11136;48.778;9.126;2023-04-30T13:42:13;2.65;;;2.40;;
21943;SDS011;11136;48.778;9.126;2023-04-30T13:44:38;2.55;;;2.17;;
21943;SDS011;11136;48.778;9.126;2023-04-30T13:47:04;4.43;;;2.70;;
21943;SDS011;11136;48.778;9.126;2023-04-30T13:49:31;5.70;;;2.75;;
21943;SDS011;11136;48.778;9.126;2023-04-30T13:52:00;3.00;;;2.40;;
21943;SDS011;11136;48.778;9.126;2023-04-30T13:54:25;3.28;;;2.42;;
21943;SDS011;11136;48.778;9.126;2023-04-30T13:56:51;4.60;;;2.50;;
21943;SDS011;11136;48.778;9.126;2023-04-30T13:59:17;5.25;;;2.42;;
21943;SDS011;11136;48.778;9.126;2023-04-30T14:01:42;4.70;;;2.38;;
21943;SDS011;11136;48.778;9.126;2023-04-30T14:04:08;4.75;;;2.35;;
21943;SDS011;11136;48.778;9.126;2023-04-30T14:06:33;2.60;;;2.35;;
21943;SDS011;11136;48.778;9.126;2023-04-30T14:08:59;3.50;;;2.30;;
21943;SDS011;11136;48.778;9.126;2023-04-30T14:11:25;4.70;;;2.05;;
21943;SDS011;11136;48.778;9.126;2023-04-30T14:13:51;5.13;;;2.20;;
21943;SDS011;11136;48.778;9.126;2023-04-30T14:16:17;3.80;;;2.33;;
21943;SDS011;11136;48.778;9.126;2023-04-30T14:18:44;3.35;;;2.30;;
21943;SDS011;11136;48.778;9.126;2023-04-30T14:21:10;5.30;;;2.80;;
21943;SDS011;11136;48.778;9.126;2023-04-30T14:23:36;2.80;;;2.25;;
21943;SDS011;11136;48.778;9.126;2023-04-30T14:26:03;2.05;;;1.75;;
21943;SDS011;11136;48.778;9.126;2023-04-30T14:28:28;9.13;;;2.35;;
21943;SDS011;11136;48.778;9.126;2023-04-30T14:30:54;5.93;;;2.38;;
21943;SDS011;11136;48.778;9.126;2023-04-30T14:33:19;1.95;;;1.83;;
21943;SDS011;11136;48.778;9.126;2023-04-30T14:35:45;5.78;;;2.40;;
21943;SDS011;11136;48.778;9.126;2023-04-30T14:38:12;2.50;;;2.22;;
21943;SDS011;11136;48.778;9.126;2023-04-30T14:40:39;2.65;;;2.25;;
21943;SDS011;11136;48.778;9.126;2023-04-30T14:43:04;3.10;;;2.20;;
21943;SDS011;11136;48.778;9.126;2023-04-30T14:45:33;2.78;;;2.45;;
21943;SDS011;11136;48.778;9.126;2023-04-30T14:47:59;2.63;;;2.25;;
21943;SDS011;11136;48.778;9.126;2023-04-30T14:50:25;2.35;;;1.77;;
21943;SDS011;11136;48.778;9.126;2023-04-30T14:52:51;4.18;;;2.92;;
21943;SDS011;11136;48.778;9.126;2023-04-30T14:55:17;4.85;;;2.30;;
21943;SDS011;11136;48.778;9.126;2023-04-30T14:57:42;3.25;;;2.35;;
21943;SDS011;11136;48.778;9.126;2023-04-30T15:00:08;3.53;;;2.22;;
21943;SDS011;11136;48.778;9.126;2023-04-30T15:02:35;2.90;;;2.13;;
21943;SDS011;11136;48.778;9.126;2023-04-30T15:05:02;4.47;;;2.17;;
21943;SDS011;11136;48.778;9.126;2023-04-30T15:07:29;4.13;;;2.20;;
21943;SDS011;11136;48.778;9.126;2023-04-30T15:09:54;2.20;;;2.00;;
21943;SDS011;11136;48.778;9.126;2023-04-30T15:12:20;3.40;;;2.33;;
21943;SDS011;11136;48.778;9.126;2023-04-30T15:14:46;9.52;;;6.15;;
21943;SDS011;11136;48.778;9.126;2023-04-30T15:17:12;3.47;;;2.72;;
21943;SDS011;11136;48.778;9.126;2023-04-30T15:19:38;5.18;;;2.63;;